Sweetest Thing — WDF9577 — position and weather

sailwx.info

Track history (hours):
 
Tides and Currents Weather Stations Pressure Air Temp Water Temp Dewpoint Dewpoint Depression Visibility Wind Speed Wind Dir Waves Ship Positions

Sweetest Thing

Owner: Thomas Smith Sails, LLC, Harmony, PA. More information available from US FCC via Universal Licensing System and Coast Guard Vessel Documentation Center.

Last reported at 2017-May-28 14:31 UTC. Time now 2017-May-29 13:22 UTC.
Position N 18°20' W 064°48'.

Length 15 m.

Type: Sailing vessel. MMSI: 367506610.

Date/timePositionNaut miles runAvg speedWind from/ knotsBaromVisibWave heightAir tempDewpointWater temp
2017-May-28 14:31N 18°20' W 064°48'0 7.6
2017-May-28 14:29N 18°20' W 064°48'  
2017-May-22 10:18N 18°22' W 064°45'0 0.0
2017-May-22 10:00N 18°22' W 064°45'0 0.0
2017-May-22 09:30N 18°22' W 064°45'0 0.0
2017-May-22 08:00N 18°22' W 064°45'3 0.2
2017-May-21 18:10N 18°21' W 064°48'2 0.1
2017-May-20 16:06N 18°20' W 064°50'1 5.5
2017-May-20 15:59N 18°20' W 064°49'2 1.5
2017-May-20 14:45N 18°21' W 064°48'0 0.0
2017-May-20 14:27N 18°21' W 064°48'1 0.1
2017-May-20 02:50N 18°21' W 064°47'0 0.0
2017-May-20 02:14N 18°21' W 064°47'0 0.0
2017-May-20 01:44N 18°21' W 064°47'0 0.0
2017-May-20 01:26N 18°21' W 064°47'0 0.0
2017-May-20 00:56N 18°21' W 064°47'0 0.0
2017-May-20 00:26N 18°21' W 064°47'0 0.0
2017-May-19 23:56N 18°21' W 064°47'0 0.0
2017-May-19 23:26N 18°21' W 064°47'0 0.0
2017-May-19 22:56N 18°21' W 064°47'0 0.0
2017-May-19 22:26N 18°21' W 064°47'0 0.0
2017-May-19 21:50N 18°21' W 064°47'0 0.0
2017-May-19 21:26N 18°21' W 064°47'0 0.0
2017-May-19 20:56N 18°21' W 064°47'0 0.6
2017-May-19 20:30N 18°21' W 064°47'  
Track history (hours):
 
Tides and Currents Weather Stations Pressure Air Temp Water Temp Dewpoint Dewpoint Depression Visibility Wind Speed Wind Dir Waves Ship Positions

Sweetest Thing

Owner: Thomas Smith Sails, LLC, Harmony, PA. More information available from US FCC via Universal Licensing System and Coast Guard Vessel Documentation Center.

Last reported at 2017-May-28 14:31 UTC. Time now 2017-May-29 13:22 UTC.
Position N 18°20' W 064°48'.

Length 15 m.

Type: Sailing vessel. MMSI: 367506610.

Date/timePositionNaut miles runAvg speedWind from/ knotsBaromVisibWave heightAir tempDewpointWater temp
2017-May-28 14:31N 18°20' W 064°48'0 7.6
2017-May-28 14:29N 18°20' W 064°48'  
2017-May-22 10:18N 18°22' W 064°45'0 0.0
2017-May-22 10:00N 18°22' W 064°45'0 0.0
2017-May-22 09:30N 18°22' W 064°45'0 0.0
2017-May-22 08:00N 18°22' W 064°45'3 0.2
2017-May-21 18:10N 18°21' W 064°48'2 0.1
2017-May-20 16:06N 18°20' W 064°50'1 5.5
2017-May-20 15:59N 18°20' W 064°49'2 1.5
2017-May-20 14:45N 18°21' W 064°48'0 0.0
2017-May-20 14:27N 18°21' W 064°48'1 0.1
2017-May-20 02:50N 18°21' W 064°47'0 0.0
2017-May-20 02:14N 18°21' W 064°47'0 0.0
2017-May-20 01:44N 18°21' W 064°47'0 0.0
2017-May-20 01:26N 18°21' W 064°47'0 0.0
2017-May-20 00:56N 18°21' W 064°47'0 0.0
2017-May-20 00:26N 18°21' W 064°47'0 0.0
2017-May-19 23:56N 18°21' W 064°47'0 0.0
2017-May-19 23:26N 18°21' W 064°47'0 0.0
2017-May-19 22:56N 18°21' W 064°47'0 0.0
2017-May-19 22:26N 18°21' W 064°47'0 0.0
2017-May-19 21:50N 18°21' W 064°47'0 0.0
2017-May-19 21:26N 18°21' W 064°47'0 0.0
2017-May-19 20:56N 18°21' W 064°47'0 0.6
2017-May-19 20:30N 18°21' W 064°47'  

Dump ship's entire track history